sensor_id;sensor_type;location;lat;lon;timestamp;P1;durP1;ratioP1;P2;durP2;ratioP2
5026;SDS011;2532;52.480;13.354;2023-01-24T05:02:04;16.10;;;9.20;;
5026;SDS011;2532;52.480;13.354;2023-01-24T05:04:31;18.17;;;10.80;;
5026;SDS011;2532;52.480;13.354;2023-01-24T05:06:58;15.07;;;10.00;;
5026;SDS011;2532;52.480;13.354;2023-01-24T05:09:24;18.57;;;10.37;;
5026;SDS011;2532;52.480;13.354;2023-01-24T05:11:51;17.43;;;10.33;;
5026;SDS011;2532;52.480;13.354;2023-01-24T05:16:46;18.03;;;11.00;;
5026;SDS011;2532;52.480;13.354;2023-01-24T05:19:14;20.23;;;10.90;;
5026;SDS011;2532;52.480;13.354;2023-01-24T05:21:41;16.63;;;10.77;;
5026;SDS011;2532;52.480;13.354;2023-01-24T05:24:08;14.70;;;9.40;;
5026;SDS011;2532;52.480;13.354;2023-01-24T05:26:35;16.80;;;10.30;;
5026;SDS011;2532;52.480;13.354;2023-01-24T05:29:02;20.80;;;10.73;;
5026;SDS011;2532;52.480;13.354;2023-01-24T05:31:29;16.23;;;10.10;;
5026;SDS011;2532;52.480;13.354;2023-01-24T05:33:56;18.40;;;10.67;;
5026;SDS011;2532;52.480;13.354;2023-01-24T05:36:24;16.97;;;11.60;;
5026;SDS011;2532;52.480;13.354;2023-01-24T05:38:51;16.87;;;10.90;;
5026;SDS011;2532;52.480;13.354;2023-01-24T05:41:18;20.97;;;12.50;;
5026;SDS011;2532;52.480;13.354;2023-01-24T05:43:46;18.57;;;9.87;;
5026;SDS011;2532;52.480;13.354;2023-01-24T05:46:14;18.97;;;11.20;;
5026;SDS011;2532;52.480;13.354;2023-01-24T05:48:42;17.50;;;11.00;;
5026;SDS011;2532;52.480;13.354;2023-01-24T05:51:11;15.47;;;11.03;;
5026;SDS011;2532;52.480;13.354;2023-01-24T05:53:42;17.47;;;10.53;;
5026;SDS011;2532;52.480;13.354;2023-01-24T05:56:11;16.00;;;10.10;;
5026;SDS011;2532;52.480;13.354;2023-01-24T05:58:39;20.70;;;11.67;;
5026;SDS011;2532;52.480;13.354;2023-01-24T06:01:07;18.63;;;11.57;;
5026;SDS011;2532;52.480;13.354;2023-01-24T06:03:36;23.73;;;11.40;;
5026;SDS011;2532;52.480;13.354;2023-01-24T06:06:04;18.10;;;11.27;;
5026;SDS011;2532;52.480;13.354;2023-01-24T06:08:31;18.93;;;11.00;;
5026;SDS011;2532;52.480;13.354;2023-01-24T06:11:03;22.80;;;10.27;;
5026;SDS011;2532;52.480;13.354;2023-01-24T06:13:31;20.70;;;12.37;;
5026;SDS011;2532;52.480;13.354;2023-01-24T06:16:01;20.30;;;11.17;;
5026;SDS011;2532;52.480;13.354;2023-01-24T06:18:29;19.67;;;12.03;;
5026;SDS011;2532;52.480;13.354;2023-01-24T06:20:56;18.67;;;11.40;;
5026;SDS011;2532;52.480;13.354;2023-01-24T06:23:24;16.93;;;11.20;;
5026;SDS011;2532;52.480;13.354;2023-01-24T06:25:52;17.87;;;10.10;;
5026;SDS011;2532;52.480;13.354;2023-01-24T06:28:21;19.63;;;11.83;;
5026;SDS011;2532;52.480;13.354;2023-01-24T06:30:51;19.83;;;11.40;;
5026;SDS011;2532;52.480;13.354;2023-01-24T06:33:25;18.57;;;12.40;;
5026;SDS011;2532;52.480;13.354;2023-01-24T06:36:11;20.27;;;11.93;;
5026;SDS011;2532;52.480;13.354;2023-01-24T06:38:45;18.30;;;11.40;;
5026;SDS011;2532;52.480;13.354;2023-01-24T06:41:13;19.83;;;11.73;;
5026;SDS011;2532;52.480;13.354;2023-01-24T06:43:43;19.70;;;10.60;;
5026;SDS011;2532;52.480;13.354;2023-01-24T06:46:11;24.47;;;11.40;;
5026;SDS011;2532;52.480;13.354;2023-01-24T06:48:41;20.20;;;12.00;;
5026;SDS011;2532;52.480;13.354;2023-01-24T06:51:09;21.67;;;11.40;;
5026;SDS011;2532;52.480;13.354;2023-01-24T06:53:38;15.90;;;10.13;;
5026;SDS011;2532;52.480;13.354;2023-01-24T06:56:05;20.33;;;11.70;;
5026;SDS011;2532;52.480;13.354;2023-01-24T06:58:33;20.30;;;10.90;;
5026;SDS011;2532;52.480;13.354;2023-01-24T07:01:01;23.10;;;11.83;;
5026;SDS011;2532;52.480;13.354;2023-01-24T07:03:29;22.50;;;13.97;;
5026;SDS011;2532;52.480;13.354;2023-01-24T07:05:56;21.17;;;10.77;;
5026;SDS011;2532;52.480;13.354;2023-01-24T07:08:23;21.57;;;12.17;;
5026;SDS011;2532;52.480;13.354;2023-01-24T07:10:50;26.93;;;12.47;;
5026;SDS011;2532;52.480;13.354;2023-01-24T07:13:17;21.23;;;11.80;;
5026;SDS011;2532;52.480;13.354;2023-01-24T07:15:44;26.33;;;12.50;;
5026;SDS011;2532;52.480;13.354;2023-01-24T07:18:13;24.37;;;12.47;;
5026;SDS011;2532;52.480;13.354;2023-01-24T07:20:43;23.57;;;10.57;;
5026;SDS011;2532;52.480;13.354;2023-01-24T07:23:16;23.33;;;12.60;;
5026;SDS011;2532;52.480;13.354;2023-01-24T07:25:47;29.10;;;11.90;;
5026;SDS011;2532;52.480;13.354;2023-01-24T07:28:15;30.60;;;13.17;;
5026;SDS011;2532;52.480;13.354;2023-01-24T07:30:42;26.17;;;11.87;;
5026;SDS011;2532;52.480;13.354;2023-01-24T07:33:11;23.00;;;12.30;;
5026;SDS011;2532;52.480;13.354;2023-01-24T07:35:40;29.73;;;14.20;;
5026;SDS011;2532;52.480;13.354;2023-01-24T07:38:07;29.07;;;13.67;;
5026;SDS011;2532;52.480;13.354;2023-01-24T07:40:35;30.77;;;13.70;;
5026;SDS011;2532;52.480;13.354;2023-01-24T07:43:03;24.93;;;12.43;;
5026;SDS011;2532;52.480;13.354;2023-01-24T07:45:30;28.63;;;13.63;;
5026;SDS011;2532;52.480;13.354;2023-01-24T07:48:00;28.97;;;13.07;;
5026;SDS011;2532;52.480;13.354;2023-01-24T07:50:28;34.70;;;13.50;;
5026;SDS011;2532;52.480;13.354;2023-01-24T07:52:56;31.50;;;14.47;;
5026;SDS011;2532;52.480;13.354;2023-01-24T07:55:24;29.60;;;14.10;;
5026;SDS011;2532;52.480;13.354;2023-01-24T07:57:51;34.20;;;14.90;;
5026;SDS011;2532;52.480;13.354;2023-01-24T08:00:23;41.10;;;14.77;;
5026;SDS011;2532;52.480;13.354;2023-01-24T08:02:50;33.90;;;14.27;;
5026;SDS011;2532;52.480;13.354;2023-01-24T08:05:17;41.80;;;15.20;;
5026;SDS011;2532;52.480;13.354;2023-01-24T08:07:45;35.97;;;16.10;;
5026;SDS011;2532;52.480;13.354;2023-01-24T08:10:12;36.53;;;15.90;;
5026;SDS011;2532;52.480;13.354;2023-01-24T08:12:39;32.13;;;13.90;;
5026;SDS011;2532;52.480;13.354;2023-01-24T08:15:07;37.90;;;16.33;;
5026;SDS011;2532;52.480;13.354;2023-01-24T08:17:35;32.60;;;14.83;;
5026;SDS011;2532;52.480;13.354;2023-01-24T08:20:03;44.07;;;16.60;;
5026;SDS011;2532;52.480;13.354;2023-01-24T08:22:30;46.77;;;16.17;;
5026;SDS011;2532;52.480;13.354;2023-01-24T08:24:58;39.00;;;17.53;;
5026;SDS011;2532;52.480;13.354;2023-01-24T08:27:25;38.60;;;16.80;;
5026;SDS011;2532;52.480;13.354;2023-01-24T08:29:52;37.07;;;15.30;;
5026;SDS011;2532;52.480;13.354;2023-01-24T08:32:19;34.80;;;14.60;;
5026;SDS011;2532;52.480;13.354;2023-01-24T08:34:46;45.30;;;17.00;;
5026;SDS011;2532;52.480;13.354;2023-01-24T08:37:13;43.60;;;16.70;;
5026;SDS011;2532;52.480;13.354;2023-01-24T08:39:40;42.33;;;17.40;;
5026;SDS011;2532;52.480;13.354;2023-01-24T08:42:09;45.60;;;16.80;;
5026;SDS011;2532;52.480;13.354;2023-01-24T08:44:36;44.10;;;17.40;;
5026;SDS011;2532;52.480;13.354;2023-01-24T08:47:03;56.67;;;18.50;;
5026;SDS011;2532;52.480;13.354;2023-01-24T08:49:30;49.47;;;17.07;;
5026;SDS011;2532;52.480;13.354;2023-01-24T08:51:57;42.40;;;17.40;;
5026;SDS011;2532;52.480;13.354;2023-01-24T08:54:24;45.13;;;16.97;;
5026;SDS011;2532;52.480;13.354;2023-01-24T08:56:52;43.40;;;17.40;;
5026;SDS011;2532;52.480;13.354;2023-01-24T08:59:20;51.07;;;17.37;;
5026;SDS011;2532;52.480;13.354;2023-01-24T09:01:47;49.50;;;18.70;;
5026;SDS011;2532;52.480;13.354;2023-01-24T09:04:14;46.63;;;18.57;;
5026;SDS011;2532;52.480;13.354;2023-01-24T09:06:41;62.83;;;19.13;;
5026;SDS011;2532;52.480;13.354;2023-01-24T09:09:08;44.27;;;15.23;;
5026;SDS011;2532;52.480;13.354;2023-01-24T09:11:35;57.27;;;19.20;;
5026;SDS011;2532;52.480;13.354;2023-01-24T09:14:02;43.63;;;16.63;;
5026;SDS011;2532;52.480;13.354;2023-01-24T09:16:30;43.10;;;18.00;;
5026;SDS011;2532;52.480;13.354;2023-01-24T09:18:57;51.40;;;18.20;;
5026;SDS011;2532;52.480;13.354;2023-01-24T09:21:24;50.73;;;18.90;;
5026;SDS011;2532;52.480;13.354;2023-01-24T09:23:52;52.83;;;20.17;;
5026;SDS011;2532;52.480;13.354;2023-01-24T09:26:19;57.37;;;18.87;;
5026;SDS011;2532;52.480;13.354;2023-01-24T09:28:46;62.70;;;19.27;;
5026;SDS011;2532;52.480;13.354;2023-01-24T09:31:13;53.10;;;17.87;;
5026;SDS011;2532;52.480;13.354;2023-01-24T09:33:42;51.17;;;20.60;;
5026;SDS011;2532;52.480;13.354;2023-01-24T09:36:09;48.03;;;17.97;;
5026;SDS011;2532;52.480;13.354;2023-01-24T09:38:36;53.67;;;18.83;;
5026;SDS011;2532;52.480;13.354;2023-01-24T09:41:05;47.60;;;18.03;;
5026;SDS011;2532;52.480;13.354;2023-01-24T09:43:41;64.10;;;18.87;;
5026;SDS011;2532;52.480;13.354;2023-01-24T09:46:15;65.03;;;21.37;;
5026;SDS011;2532;52.480;13.354;2023-01-24T09:48:49;61.80;;;21.87;;
5026;SDS011;2532;52.480;13.354;2023-01-24T09:51:30;65.50;;;20.30;;
5026;SDS011;2532;52.480;13.354;2023-01-24T09:54:01;56.83;;;18.90;;
5026;SDS011;2532;52.480;13.354;2023-01-24T09:56:32;56.33;;;20.10;;
5026;SDS011;2532;52.480;13.354;2023-01-24T10:01:53;56.57;;;19.87;;
5026;SDS011;2532;52.480;13.354;2023-01-24T10:04:23;61.67;;;21.13;;
5026;SDS011;2532;52.480;13.354;2023-01-24T10:07:03;61.97;;;20.77;;
5026;SDS011;2532;52.480;13.354;2023-01-24T10:09:52;72.87;;;22.80;;
5026;SDS011;2532;52.480;13.354;2023-01-24T10:12:42;72.07;;;20.37;;
5026;SDS011;2532;52.480;13.354;2023-01-24T10:15:19;81.27;;;23.63;;
5026;SDS011;2532;52.480;13.354;2023-01-24T10:17:59;67.27;;;21.97;;
5026;SDS011;2532;52.480;13.354;2023-01-24T10:20:42;73.20;;;22.70;;
5026;SDS011;2532;52.480;13.354;2023-01-24T10:23:16;62.10;;;20.67;;
5026;SDS011;2532;52.480;13.354;2023-01-24T10:25:49;63.17;;;21.77;;
5026;SDS011;2532;52.480;13.354;2023-01-24T10:28:20;70.43;;;21.57;;
5026;SDS011;2532;52.480;13.354;2023-01-24T10:33:40;72.07;;;22.97;;
5026;SDS011;2532;52.480;13.354;2023-01-24T10:36:15;59.33;;;20.77;;
5026;SDS011;2532;52.480;13.354;2023-01-24T10:38:48;75.40;;;23.77;;
5026;SDS011;2532;52.480;13.354;2023-01-24T10:41:16;82.40;;;24.50;;
5026;SDS011;2532;52.480;13.354;2023-01-24T10:43:48;65.50;;;22.20;;
5026;SDS011;2532;52.480;13.354;2023-01-24T10:49:11;64.90;;;23.40;;
5026;SDS011;2532;52.480;13.354;2023-01-24T10:51:53;68.03;;;22.70;;
5026;SDS011;2532;52.480;13.354;2023-01-24T10:54:40;66.77;;;21.20;;
5026;SDS011;2532;52.480;13.354;2023-01-24T11:00:04;67.33;;;21.50;;
5026;SDS011;2532;52.480;13.354;2023-01-24T11:02:48;75.53;;;24.17;;
5026;SDS011;2532;52.480;13.354;2023-01-24T11:05:17;83.23;;;21.20;;
5026;SDS011;2532;52.480;13.354;2023-01-24T11:07:47;65.23;;;22.47;;
5026;SDS011;2532;52.480;13.354;2023-01-24T11:10:18;68.90;;;21.70;;
5026;SDS011;2532;52.480;13.354;2023-01-24T11:12:48;71.17;;;24.50;;
5026;SDS011;2532;52.480;13.354;2023-01-24T11:15:18;60.63;;;22.03;;
5026;SDS011;2532;52.480;13.354;2023-01-24T11:17:51;65.47;;;22.87;;
5026;SDS011;2532;52.480;13.354;2023-01-24T11:20:27;59.50;;;23.07;;
5026;SDS011;2532;52.480;13.354;2023-01-24T11:23:04;65.23;;;21.60;;
5026;SDS011;2532;52.480;13.354;2023-01-24T11:25:36;54.30;;;19.63;;
5026;SDS011;2532;52.480;13.354;2023-01-24T11:28:23;61.77;;;23.73;;
5026;SDS011;2532;52.480;13.354;2023-01-24T11:30:51;60.00;;;21.53;;
5026;SDS011;2532;52.480;13.354;2023-01-24T11:33:33;63.30;;;22.20;;
5026;SDS011;2532;52.480;13.354;2023-01-24T11:36:21;69.00;;;21.73;;
5026;SDS011;2532;52.480;13.354;2023-01-24T11:38:59;54.27;;;21.60;;
5026;SDS011;2532;52.480;13.354;2023-01-24T11:41:32;67.73;;;22.93;;
5026;SDS011;2532;52.480;13.354;2023-01-24T11:44:14;53.87;;;20.70;;
5026;SDS011;2532;52.480;13.354;2023-01-24T11:47:04;62.80;;;20.90;;
5026;SDS011;2532;52.480;13.354;2023-01-24T11:49:41;64.77;;;21.33;;
5026;SDS011;2532;52.480;13.354;2023-01-24T11:52:23;63.63;;;21.90;;
5026;SDS011;2532;52.480;13.354;2023-01-24T11:55:14;62.03;;;20.57;;
5026;SDS011;2532;52.480;13.354;2023-01-24T11:57:48;57.23;;;20.57;;
5026;SDS011;2532;52.480;13.354;2023-01-24T12:00:28;57.00;;;19.70;;
5026;SDS011;2532;52.480;13.354;2023-01-24T12:03:08;56.73;;;20.87;;
5026;SDS011;2532;52.480;13.354;2023-01-24T12:05:48;59.53;;;19.73;;
5026;SDS011;2532;52.480;13.354;2023-01-24T12:08:29;64.03;;;24.17;;
5026;SDS011;2532;52.480;13.354;2023-01-24T12:11:11;52.93;;;20.10;;
5026;SDS011;2532;52.480;13.354;2023-01-24T12:13:46;59.00;;;22.23;;
5026;SDS011;2532;52.480;13.354;2023-01-24T12:16:20;45.30;;;17.53;;
5026;SDS011;2532;52.480;13.354;2023-01-24T12:19:16;53.33;;;18.97;;
5026;SDS011;2532;52.480;13.354;2023-01-24T12:22:00;49.27;;;18.80;;
5026;SDS011;2532;52.480;13.354;2023-01-24T12:24:37;41.80;;;19.27;;
5026;SDS011;2532;52.480;13.354;2023-01-24T12:27:11;41.70;;;18.50;;
5026;SDS011;2532;52.480;13.354;2023-01-24T12:29:42;41.60;;;16.90;;
5026;SDS011;2532;52.480;13.354;2023-01-24T12:32:15;51.03;;;19.60;;
5026;SDS011;2532;52.480;13.354;2023-01-24T12:34:49;46.80;;;19.67;;
5026;SDS011;2532;52.480;13.354;2023-01-24T12:37:23;42.27;;;18.27;;
5026;SDS011;2532;52.480;13.354;2023-01-24T12:39:59;49.93;;;18.63;;
5026;SDS011;2532;52.480;13.354;2023-01-24T12:42:38;42.33;;;18.33;;
5026;SDS011;2532;52.480;13.354;2023-01-24T12:45:15;45.63;;;18.77;;
5026;SDS011;2532;52.480;13.354;2023-01-24T12:47:47;40.50;;;18.70;;
5026;SDS011;2532;52.480;13.354;2023-01-24T12:50:20;47.67;;;19.10;;
5026;SDS011;2532;52.480;13.354;2023-01-24T12:52:59;48.77;;;19.47;;
5026;SDS011;2532;52.480;13.354;2023-01-24T12:55:35;43.67;;;18.90;;
5026;SDS011;2532;52.480;13.354;2023-01-24T12:58:10;51.23;;;23.50;;
5026;SDS011;2532;52.480;13.354;2023-01-24T13:00:47;41.13;;;17.87;;
5026;SDS011;2532;52.480;13.354;2023-01-24T13:03:28;47.30;;;19.90;;
5026;SDS011;2532;52.480;13.354;2023-01-24T13:06:07;42.23;;;18.73;;
5026;SDS011;2532;52.480;13.354;2023-01-24T13:08:45;46.60;;;19.63;;
5026;SDS011;2532;52.480;13.354;2023-01-24T13:11:18;47.37;;;16.33;;
5026;SDS011;2532;52.480;13.354;2023-01-24T13:13:49;41.40;;;19.07;;
5026;SDS011;2532;52.480;13.354;2023-01-24T13:16:27;41.43;;;18.90;;
5026;SDS011;2532;52.480;13.354;2023-01-24T13:19:17;38.93;;;18.63;;
5026;SDS011;2532;52.480;13.354;2023-01-24T13:21:55;42.33;;;19.03;;
5026;SDS011;2532;52.480;13.354;2023-01-24T13:24:36;42.10;;;18.00;;
5026;SDS011;2532;52.480;13.354;2023-01-24T13:27:25;44.17;;;17.83;;
5026;SDS011;2532;52.480;13.354;2023-01-24T13:30:15;50.00;;;19.30;;
5026;SDS011;2532;52.480;13.354;2023-01-24T13:32:51;40.90;;;18.20;;
5026;SDS011;2532;52.480;13.354;2023-01-24T13:35:22;41.83;;;18.13;;
5026;SDS011;2532;52.480;13.354;2023-01-24T13:37:51;51.23;;;19.20;;
5026;SDS011;2532;52.480;13.354;2023-01-24T13:40:24;44.83;;;19.37;;
5026;SDS011;2532;52.480;13.354;2023-01-24T13:42:55;42.90;;;17.87;;
5026;SDS011;2532;52.480;13.354;2023-01-24T13:48:46;44.50;;;18.90;;
5026;SDS011;2532;52.480;13.354;2023-01-24T13:51:30;47.27;;;18.63;;
5026;SDS011;2532;52.480;13.354;2023-01-24T13:54:15;45.03;;;18.53;;
5026;SDS011;2532;52.480;13.354;2023-01-24T13:57:18;56.87;;;19.90;;
5026;SDS011;2532;52.480;13.354;2023-01-24T13:59:59;45.83;;;18.70;;
5026;SDS011;2532;52.480;13.354;2023-01-24T14:05:41;44.60;;;17.70;;
5026;SDS011;2532;52.480;13.354;2023-01-24T14:08:16;45.60;;;18.83;;
5026;SDS011;2532;52.480;13.354;2023-01-24T14:11:14;41.67;;;18.00;;
5026;SDS011;2532;52.480;13.354;2023-01-24T14:17:28;40.47;;;17.60;;
5026;SDS011;2532;52.480;13.354;2023-01-24T14:20:23;43.13;;;17.03;;
5026;SDS011;2532;52.480;13.354;2023-01-24T14:23:04;47.93;;;19.87;;
5026;SDS011;2532;52.480;13.354;2023-01-24T14:25:45;46.23;;;18.13;;
5026;SDS011;2532;52.480;13.354;2023-01-24T14:28:17;41.33;;;17.90;;
5026;SDS011;2532;52.480;13.354;2023-01-24T14:30:54;44.57;;;18.20;;
5026;SDS011;2532;52.480;13.354;2023-01-24T14:33:29;45.03;;;16.63;;
5026;SDS011;2532;52.480;13.354;2023-01-24T14:36:01;40.63;;;17.13;;
5026;SDS011;2532;52.480;13.354;2023-01-24T14:38:38;46.67;;;18.27;;
5026;SDS011;2532;52.480;13.354;2023-01-24T14:41:10;42.10;;;18.53;;
5026;SDS011;2532;52.480;13.354;2023-01-24T14:43:46;58.30;;;18.97;;
5026;SDS011;2532;52.480;13.354;2023-01-24T14:46:16;57.27;;;19.17;;
5026;SDS011;2532;52.480;13.354;2023-01-24T14:48:56;46.70;;;20.30;;
5026;SDS011;2532;52.480;13.354;2023-01-24T14:51:23;39.50;;;16.90;;
5026;SDS011;2532;52.480;13.354;2023-01-24T14:53:52;39.93;;;15.43;;
5026;SDS011;2532;52.480;13.354;2023-01-24T14:56:20;44.97;;;18.40;;
5026;SDS011;2532;52.480;13.354;2023-01-24T14:58:47;56.40;;;18.90;;
5026;SDS011;2532;52.480;13.354;2023-01-24T15:01:21;39.00;;;17.47;;
5026;SDS011;2532;52.480;13.354;2023-01-24T15:03:51;38.00;;;16.40;;
5026;SDS011;2532;52.480;13.354;2023-01-24T15:06:19;38.00;;;17.80;;
5026;SDS011;2532;52.480;13.354;2023-01-24T15:08:47;49.73;;;21.67;;
5026;SDS011;2532;52.480;13.354;2023-01-24T15:11:18;52.63;;;19.20;;
5026;SDS011;2532;52.480;13.354;2023-01-24T15:13:48;38.03;;;16.33;;
5026;SDS011;2532;52.480;13.354;2023-01-24T15:16:17;41.70;;;16.73;;
5026;SDS011;2532;52.480;13.354;2023-01-24T15:18:46;37.77;;;16.40;;
5026;SDS011;2532;52.480;13.354;2023-01-24T15:21:16;42.93;;;16.97;;
5026;SDS011;2532;52.480;13.354;2023-01-24T15:23:52;41.60;;;16.23;;
5026;SDS011;2532;52.480;13.354;2023-01-24T15:26:32;36.83;;;15.73;;
5026;SDS011;2532;52.480;13.354;2023-01-24T15:35:22;53.03;;;17.43;;
5026;SDS011;2532;52.480;13.354;2023-01-24T15:40:50;37.17;;;17.00;;
5026;SDS011;2532;52.480;13.354;2023-01-24T15:43:28;41.80;;;17.27;;
5026;SDS011;2532;52.480;13.354;2023-01-24T15:46:20;43.20;;;17.20;;
5026;SDS011;2532;52.480;13.354;2023-01-24T15:49:24;44.93;;;17.17;;
5026;SDS011;2532;52.480;13.354;2023-01-24T15:52:16;43.20;;;17.90;;
5026;SDS011;2532;52.480;13.354;2023-01-24T15:54:45;47.00;;;17.90;;
5026;SDS011;2532;52.480;13.354;2023-01-24T15:57:26;39.00;;;16.20;;
5026;SDS011;2532;52.480;13.354;2023-01-24T15:59:57;46.77;;;17.40;;
5026;SDS011;2532;52.480;13.354;2023-01-24T16:02:26;45.90;;;17.40;;
5026;SDS011;2532;52.480;13.354;2023-01-24T16:04:53;50.53;;;17.53;;
5026;SDS011;2532;52.480;13.354;2023-01-24T16:07:20;40.37;;;16.00;;
5026;SDS011;2532;52.480;13.354;2023-01-24T16:09:48;45.53;;;16.30;;
5026;SDS011;2532;52.480;13.354;2023-01-24T16:12:20;37.63;;;17.60;;
5026;SDS011;2532;52.480;13.354;2023-01-24T16:14:48;37.37;;;17.80;;
5026;SDS011;2532;52.480;13.354;2023-01-24T16:17:18;39.93;;;17.27;;
5026;SDS011;2532;52.480;13.354;2023-01-24T16:19:47;40.27;;;17.17;;
5026;SDS011;2532;52.480;13.354;2023-01-24T16:22:14;37.20;;;15.70;;
5026;SDS011;2532;52.480;13.354;2023-01-24T16:24:42;38.90;;;17.13;;
5026;SDS011;2532;52.480;13.354;2023-01-24T16:27:09;36.70;;;16.60;;
5026;SDS011;2532;52.480;13.354;2023-01-24T16:29:39;36.50;;;15.33;;
5026;SDS011;2532;52.480;13.354;2023-01-24T16:32:10;35.30;;;14.77;;
5026;SDS011;2532;52.480;13.354;2023-01-24T16:34:46;42.77;;;16.93;;
5026;SDS011;2532;52.480;13.354;2023-01-24T16:37:13;35.37;;;17.33;;
5026;SDS011;2532;52.480;13.354;2023-01-24T16:39:40;42.63;;;16.73;;
5026;SDS011;2532;52.480;13.354;2023-01-24T16:42:11;39.80;;;18.07;;
5026;SDS011;2532;52.480;13.354;2023-01-24T16:44:40;34.97;;;15.63;;
5026;SDS011;2532;52.480;13.354;2023-01-24T16:47:07;35.70;;;15.43;;
5026;SDS011;2532;52.480;13.354;2023-01-24T16:49:36;41.63;;;16.87;;
5026;SDS011;2532;52.480;13.354;2023-01-24T16:52:03;46.07;;;18.67;;
5026;SDS011;2532;52.480;13.354;2023-01-24T16:54:30;34.57;;;17.17;;
5026;SDS011;2532;52.480;13.354;2023-01-24T16:56:57;38.67;;;14.27;;
5026;SDS011;2532;52.480;13.354;2023-01-24T16:59:24;28.33;;;12.90;;
5026;SDS011;2532;52.480;13.354;2023-01-24T17:01:52;29.87;;;12.20;;
5026;SDS011;2532;52.480;13.354;2023-01-24T17:04:19;24.30;;;12.40;;
5026;SDS011;2532;52.480;13.354;2023-01-24T17:06:48;28.23;;;12.37;;
5026;SDS011;2532;52.480;13.354;2023-01-24T17:09:15;25.93;;;11.63;;
5026;SDS011;2532;52.480;13.354;2023-01-24T17:11:42;24.50;;;11.60;;
5026;SDS011;2532;52.480;13.354;2023-01-24T17:14:09;23.03;;;10.60;;
5026;SDS011;2532;52.480;13.354;2023-01-24T17:16:36;34.57;;;12.90;;
5026;SDS011;2532;52.480;13.354;2023-01-24T17:19:03;31.00;;;11.90;;
5026;SDS011;2532;52.480;13.354;2023-01-24T17:21:30;25.07;;;11.57;;
5026;SDS011;2532;52.480;13.354;2023-01-24T17:23:59;15.07;;;8.10;;
5026;SDS011;2532;52.480;13.354;2023-01-24T17:26:26;17.40;;;9.50;;
5026;SDS011;2532;52.480;13.354;2023-01-24T17:28:53;17.90;;;10.23;;
5026;SDS011;2532;52.480;13.354;2023-01-24T17:31:20;20.77;;;11.17;;
5026;SDS011;2532;52.480;13.354;2023-01-24T17:33:47;31.53;;;13.10;;
5026;SDS011;2532;52.480;13.354;2023-01-24T17:36:14;26.63;;;12.37;;
5026;SDS011;2532;52.480;13.354;2023-01-24T17:38:42;28.27;;;13.03;;
5026;SDS011;2532;52.480;13.354;2023-01-24T17:41:15;29.40;;;13.37;;
5026;SDS011;2532;52.480;13.354;2023-01-24T17:43:44;33.93;;;13.90;;
5026;SDS011;2532;52.480;13.354;2023-01-24T17:46:12;37.00;;;15.40;;
5026;SDS011;2532;52.480;13.354;2023-01-24T17:48:40;35.67;;;13.40;;
5026;SDS011;2532;52.480;13.354;2023-01-24T17:51:08;39.23;;;14.20;;
5026;SDS011;2532;52.480;13.354;2023-01-24T17:53:37;25.40;;;13.83;;
5026;SDS011;2532;52.480;13.354;2023-01-24T17:56:06;32.13;;;13.70;;
5026;SDS011;2532;52.480;13.354;2023-01-24T17:58:36;30.20;;;14.00;;
5026;SDS011;2532;52.480;13.354;2023-01-24T18:01:04;33.03;;;14.47;;
5026;SDS011;2532;52.480;13.354;2023-01-24T18:03:31;32.37;;;13.60;;
5026;SDS011;2532;52.480;13.354;2023-01-24T18:06:00;26.70;;;13.93;;
5026;SDS011;2532;52.480;13.354;2023-01-24T18:08:29;28.00;;;12.73;;
5026;SDS011;2532;52.480;13.354;2023-01-24T18:10:56;34.80;;;14.60;;
5026;SDS011;2532;52.480;13.354;2023-01-24T18:13:27;27.73;;;14.00;;
5026;SDS011;2532;52.480;13.354;2023-01-24T18:16:00;34.53;;;14.17;;
5026;SDS011;2532;52.480;13.354;2023-01-24T18:18:28;35.83;;;15.23;;
5026;SDS011;2532;52.480;13.354;2023-01-24T18:20:55;34.93;;;14.37;;
5026;SDS011;2532;52.480;13.354;2023-01-24T18:23:22;37.07;;;14.30;;
5026;SDS011;2532;52.480;13.354;2023-01-24T18:25:49;34.20;;;15.40;;
5026;SDS011;2532;52.480;13.354;2023-01-24T18:28:16;28.60;;;15.37;;
5026;SDS011;2532;52.480;13.354;2023-01-24T18:30:43;31.07;;;12.83;;
5026;SDS011;2532;52.480;13.354;2023-01-24T18:33:12;36.87;;;14.47;;
5026;SDS011;2532;52.480;13.354;2023-01-24T18:35:39;31.83;;;13.80;;
5026;SDS011;2532;52.480;13.354;2023-01-24T18:38:06;32.83;;;13.77;;
5026;SDS011;2532;52.480;13.354;2023-01-24T18:40:34;31.97;;;14.87;;
5026;SDS011;2532;52.480;13.354;2023-01-24T18:43:01;31.40;;;14.73;;
5026;SDS011;2532;52.480;13.354;2023-01-24T18:45:28;27.60;;;14.47;;
5026;SDS011;2532;52.480;13.354;2023-01-24T18:47:57;29.97;;;14.90;;
5026;SDS011;2532;52.480;13.354;2023-01-24T18:50:26;29.87;;;14.87;;
5026;SDS011;2532;52.480;13.354;2023-01-24T18:52:53;27.80;;;15.23;;
5026;SDS011;2532;52.480;13.354;2023-01-24T18:55:21;38.47;;;14.30;;
5026;SDS011;2532;52.480;13.354;2023-01-24T18:57:48;34.13;;;15.83;;
5026;SDS011;2532;52.480;13.354;2023-01-24T19:00:15;31.13;;;15.63;;
5026;SDS011;2532;52.480;13.354;2023-01-24T19:02:45;29.90;;;14.43;;
5026;SDS011;2532;52.480;13.354;2023-01-24T19:05:12;32.90;;;14.90;;
5026;SDS011;2532;52.480;13.354;2023-01-24T19:07:41;29.90;;;14.50;;
5026;SDS011;2532;52.480;13.354;2023-01-24T19:10:10;29.20;;;14.00;;
5026;SDS011;2532;52.480;13.354;2023-01-24T19:12:38;28.30;;;15.23;;
5026;SDS011;2532;52.480;13.354;2023-01-24T19:15:06;30.70;;;15.20;;
5026;SDS011;2532;52.480;13.354;2023-01-24T19:17:34;31.57;;;15.57;;
5026;SDS011;2532;52.480;13.354;2023-01-24T19:20:01;31.67;;;13.73;;
5026;SDS011;2532;52.480;13.354;2023-01-24T19:22:29;28.87;;;13.90;;
5026;SDS011;2532;52.480;13.354;2023-01-24T19:24:57;30.40;;;13.27;;
5026;SDS011;2532;52.480;13.354;2023-01-24T19:27:24;36.03;;;14.10;;
5026;SDS011;2532;52.480;13.354;2023-01-24T19:29:51;34.33;;;15.73;;
5026;SDS011;2532;52.480;13.354;2023-01-24T19:32:18;28.57;;;14.13;;
5026;SDS011;2532;52.480;13.354;2023-01-24T19:34:46;41.37;;;14.67;;
5026;SDS011;2532;52.480;13.354;2023-01-24T19:37:13;27.53;;;12.70;;
5026;SDS011;2532;52.480;13.354;2023-01-24T19:39:40;32.90;;;14.30;;
5026;SDS011;2532;52.480;13.354;2023-01-24T19:42:08;34.60;;;14.70;;
5026;SDS011;2532;52.480;13.354;2023-01-24T19:44:35;34.80;;;15.07;;
5026;SDS011;2532;52.480;13.354;2023-01-24T19:47:03;27.17;;;13.87;;
5026;SDS011;2532;52.480;13.354;2023-01-24T19:49:31;28.20;;;13.07;;
5026;SDS011;2532;52.480;13.354;2023-01-24T19:51:58;34.00;;;15.63;;
5026;SDS011;2532;52.480;13.354;2023-01-24T19:54:26;26.00;;;13.40;;
5026;SDS011;2532;52.480;13.354;2023-01-24T19:56:52;29.87;;;15.33;;
5026;SDS011;2532;52.480;13.354;2023-01-24T19:59:21;31.90;;;14.47;;
5026;SDS011;2532;52.480;13.354;2023-01-24T20:01:49;32.93;;;15.27;;
5026;SDS011;2532;52.480;13.354;2023-01-24T20:04:16;32.40;;;16.07;;
5026;SDS011;2532;52.480;13.354;2023-01-24T20:06:44;31.50;;;14.97;;
5026;SDS011;2532;52.480;13.354;2023-01-24T20:09:11;30.53;;;13.97;;
5026;SDS011;2532;52.480;13.354;2023-01-24T20:11:39;31.85;;;15.20;;
5026;SDS011;2532;52.480;13.354;2023-01-24T20:14:07;33.57;;;14.30;;
5026;SDS011;2532;52.480;13.354;2023-01-24T20:16:35;31.10;;;14.10;;
5026;SDS011;2532;52.480;13.354;2023-01-24T20:19:02;29.67;;;13.30;;
5026;SDS011;2532;52.480;13.354;2023-01-24T20:21:32;35.30;;;15.90;;
5026;SDS011;2532;52.480;13.354;2023-01-24T20:24:00;27.70;;;13.87;;
5026;SDS011;2532;52.480;13.354;2023-01-24T20:26:28;31.23;;;14.20;;
5026;SDS011;2532;52.480;13.354;2023-01-24T20:28:56;39.50;;;14.10;;
5026;SDS011;2532;52.480;13.354;2023-01-24T20:31:25;28.60;;;14.93;;
5026;SDS011;2532;52.480;13.354;2023-01-24T20:33:53;25.30;;;13.60;;